createdAt,value
2023-04-12T00:01:24.742Z,3.12
2023-04-12T00:03:54.703Z,2.99
2023-04-12T00:06:32.594Z,2.97
2023-04-12T00:09:02.516Z,2.93
2023-04-12T00:11:33.702Z,3.01
2023-04-12T00:14:05.764Z,2.87
2023-04-12T00:16:36.331Z,2.96
2023-04-12T00:19:06.854Z,3.07
2023-04-12T00:21:36.521Z,3.05
2023-04-12T00:24:06.696Z,3.18
2023-04-12T00:26:36.283Z,3.10
2023-04-12T00:29:08.402Z,3.15
2023-04-12T00:31:37.928Z,3.05
2023-04-12T00:34:07.456Z,3.13
2023-04-12T00:36:37.234Z,2.98
2023-04-12T00:39:07.109Z,3.05
2023-04-12T00:41:39.326Z,3.23
2023-04-12T00:44:11.382Z,3.36
2023-04-12T00:46:41.559Z,3.22
2023-04-12T00:49:12.443Z,3.23
2023-04-12T00:51:42.700Z,3.35
2023-04-12T00:54:12.287Z,3.32
2023-04-12T00:56:45.101Z,3.33
2023-04-12T00:59:17.219Z,3.28
2023-04-12T01:01:46.746Z,3.46
2023-04-12T01:04:16.330Z,3.26
2023-04-12T01:07:01.784Z,2.93
2023-04-12T01:09:37.904Z,2.99
2023-04-12T01:12:13.135Z,2.87
2023-04-12T01:14:52.012Z,2.66
2023-04-12T01:17:25.148Z,2.55
2023-04-12T01:20:00.901Z,2.76
2023-04-12T01:22:52.723Z,2.56
2023-04-12T01:25:39.189Z,2.50
2023-04-12T01:28:13.213Z,2.47
2023-04-12T01:30:43.486Z,2.58
2023-04-12T01:33:14.866Z,2.66
2023-04-12T01:35:45.792Z,2.59
2023-04-12T01:38:15.454Z,2.52
2023-04-12T01:40:45.132Z,2.84
2023-04-12T01:43:17.538Z,2.55
2023-04-12T01:45:47.167Z,2.41
2023-04-12T01:48:16.707Z,2.48
2023-04-12T01:50:54.379Z,2.34
2023-04-12T01:53:26.549Z,2.34
2023-04-12T01:55:58.425Z,2.45
2023-04-12T01:58:31.824Z,2.58
2023-04-12T02:01:01.964Z,2.49
2023-04-12T02:03:32.097Z,2.46
2023-04-12T02:06:02.438Z,2.42
2023-04-12T02:08:32.343Z,2.41
2023-04-12T02:11:01.801Z,2.49
2023-04-12T02:13:33.932Z,2.66
2023-04-12T02:16:03.431Z,2.66
2023-04-12T02:18:33.189Z,2.60
2023-04-12T02:21:02.730Z,3.64
2023-04-12T02:23:32.228Z,3.94
2023-04-12T02:26:01.730Z,4.77
2023-04-12T02:28:34.822Z,4.93
2023-04-12T02:31:04.917Z,4.45
2023-04-12T02:33:34.890Z,3.97
2023-04-12T02:36:05.240Z,3.80
2023-04-12T02:38:34.820Z,3.56
2023-04-12T02:41:04.367Z,3.23
2023-04-12T02:43:36.614Z,3.21
2023-04-12T02:46:06.411Z,3.07
2023-04-12T02:48:35.898Z,2.97
2023-04-12T02:51:05.714Z,3.15
2023-04-12T02:53:35.312Z,3.24
2023-04-12T02:56:06.860Z,3.18
2023-04-12T02:58:39.831Z,3.10
2023-04-12T03:01:13.258Z,2.80
2023-04-12T03:03:43.392Z,2.61
2023-04-12T03:06:13.061Z,2.74
2023-04-12T03:08:42.527Z,2.73
2023-04-12T03:11:12.023Z,2.61
2023-04-12T03:13:44.062Z,2.73
2023-04-12T03:16:24.478Z,2.62
2023-04-12T03:18:54.013Z,2.66
2023-04-12T03:21:23.490Z,2.76
2023-04-12T03:23:53.035Z,2.95
2023-04-12T03:26:22.610Z,3.18
2023-04-12T03:28:54.752Z,3.20
2023-04-12T03:31:24.925Z,3.21
2023-04-12T03:33:54.529Z,3.04
2023-04-12T03:36:24.232Z,3.05
2023-04-12T03:38:53.738Z,3.14
2023-04-12T03:41:25.681Z,3.13
2023-04-12T03:43:57.921Z,3.03
2023-04-12T03:46:27.906Z,3.09
2023-04-12T03:48:57.552Z,3.05
2023-04-12T03:51:27.364Z,3.08
2023-04-12T03:53:57.141Z,3.21
2023-04-12T03:56:26.834Z,3.21
2023-04-12T03:58:59.654Z,2.97
2023-04-12T04:01:29.198Z,2.83
2023-04-12T04:03:58.860Z,2.91
2023-04-12T04:06:29.881Z,2.91
2023-04-12T04:08:59.853Z,2.96
2023-04-12T04:11:29.917Z,2.99
2023-04-12T04:14:01.971Z,2.91
2023-04-12T04:16:31.887Z,2.77
2023-04-12T04:19:01.384Z,2.71
2023-04-12T04:21:32.335Z,2.76
2023-04-12T04:24:02.510Z,2.98
2023-04-12T04:26:35.487Z,2.80
2023-04-12T04:29:07.731Z,2.94
2023-04-12T04:31:37.906Z,2.96
2023-04-12T04:34:10.526Z,2.94
2023-04-12T04:36:41.744Z,2.82
2023-04-12T04:39:11.527Z,2.97
2023-04-12T04:41:42.257Z,2.88
2023-04-12T04:44:14.597Z,2.95
2023-04-12T04:46:44.096Z,3.00
2023-04-12T04:49:13.610Z,2.96
2023-04-12T04:51:43.097Z,2.74
2023-04-12T04:54:14.036Z,2.88
2023-04-12T04:56:43.722Z,2.88
2023-04-12T04:59:17.782Z,2.97
2023-04-12T05:01:47.424Z,2.95
2023-04-12T05:04:17.045Z,2.97
2023-04-12T05:06:46.955Z,3.04
2023-04-12T05:09:16.446Z,2.99
2023-04-12T05:11:46.806Z,3.07
2023-04-12T05:14:19.140Z,3.12
2023-04-12T05:16:48.972Z,3.16
2023-04-12T05:19:18.479Z,3.09
2023-04-12T05:21:47.961Z,3.09
2023-04-12T05:24:17.572Z,3.30
2023-04-12T05:26:47.360Z,3.20
2023-04-12T05:29:19.572Z,3.28
2023-04-12T05:31:49.064Z,3.35
2023-04-12T05:34:21.692Z,3.33
2023-04-12T05:36:51.162Z,3.37
2023-04-12T05:39:20.817Z,3.43
2023-04-12T05:41:50.430Z,3.45
2023-04-12T05:44:22.619Z,3.61
2023-04-12T05:46:52.100Z,3.45
2023-04-12T05:49:21.649Z,3.46
2023-04-12T05:51:51.231Z,3.66
2023-04-12T05:54:21.337Z,3.67
2023-04-12T05:56:50.858Z,3.71
2023-04-12T05:59:23.091Z,3.68
2023-04-12T06:01:52.848Z,3.63
2023-04-12T06:04:22.844Z,3.58
2023-04-12T06:06:52.960Z,3.77
2023-04-12T06:09:22.488Z,3.84
2023-04-12T06:11:53.300Z,3.90
2023-04-12T06:14:25.460Z,3.95
2023-04-12T06:16:54.955Z,3.94
2023-04-12T06:19:24.527Z,4.01
2023-04-12T06:21:54.554Z,4.32
2023-04-12T06:24:24.107Z,4.64
2023-04-12T06:26:53.569Z,4.81
2023-04-12T06:29:26.281Z,5.10
2023-04-12T06:31:55.906Z,4.65
2023-04-12T06:34:25.482Z,4.61
2023-04-12T06:36:55.176Z,4.65
2023-04-12T06:39:24.732Z,4.89
2023-04-12T06:41:54.392Z,4.85
2023-04-12T06:44:27.304Z,5.07
2023-04-12T06:46:56.809Z,5.10
2023-04-12T06:49:26.309Z,5.25
2023-04-12T06:51:56.058Z,5.27
2023-04-12T06:54:25.609Z,5.43
2023-04-12T06:56:55.064Z,5.57
2023-04-12T06:59:27.273Z,5.57
2023-04-12T07:01:56.777Z,5.64
2023-04-12T07:04:26.313Z,5.75
2023-04-12T07:06:56.126Z,5.66
2023-04-12T07:09:25.836Z,5.80
2023-04-12T07:11:55.418Z,5.79
2023-04-12T07:14:27.727Z,5.88
2023-04-12T07:16:57.329Z,6.05
2023-04-12T07:19:26.987Z,6.11
2023-04-12T07:21:56.477Z,6.26
2023-04-12T07:24:26.021Z,6.43
2023-04-12T07:26:56.620Z,6.42
2023-04-12T07:29:28.762Z,6.48
2023-04-12T07:31:58.671Z,6.72
2023-04-12T07:34:28.546Z,6.82
2023-04-12T07:36:58.426Z,6.67
2023-04-12T07:39:29.803Z,6.54
2023-04-12T07:41:59.341Z,6.80
2023-04-12T07:44:31.609Z,6.79
2023-04-12T07:47:01.346Z,6.74
2023-04-12T07:49:30.873Z,6.83
2023-04-12T07:52:00.448Z,6.76
2023-04-12T07:54:31.064Z,6.95
2023-04-12T07:57:01.366Z,6.74
2023-04-12T07:59:33.823Z,6.97
2023-04-12T08:02:03.601Z,6.95
2023-04-12T08:04:33.347Z,6.99
2023-04-12T08:07:02.845Z,7.04
2023-04-12T08:09:32.569Z,7.03
2023-04-12T08:12:03.664Z,6.94
2023-04-12T08:14:36.605Z,6.96
2023-04-12T08:17:06.718Z,7.13
2023-04-12T08:19:36.551Z,7.27
2023-04-12T08:22:06.062Z,7.56
2023-04-12T08:24:35.564Z,7.91
2023-04-12T08:27:05.345Z,8.14
2023-04-12T08:29:37.702Z,8.21
2023-04-12T08:32:09.690Z,8.38
2023-04-12T08:34:40.295Z,8.44
2023-04-12T08:37:09.809Z,8.43
2023-04-12T08:39:39.584Z,8.31
2023-04-12T08:42:09.128Z,8.40
2023-04-12T08:44:42.274Z,8.26
2023-04-12T08:47:13.681Z,8.29
2023-04-12T08:49:43.394Z,8.26
2023-04-12T08:52:13.828Z,8.20
2023-04-12T08:54:43.333Z,8.22
2023-04-12T08:57:12.857Z,8.29
2023-04-12T08:59:45.796Z,8.19
2023-04-12T09:02:17.053Z,8.32
2023-04-12T09:04:55.546Z,8.30
2023-04-12T09:07:28.278Z,8.29
2023-04-12T09:09:58.469Z,8.27
2023-04-12T09:12:28.228Z,8.29
2023-04-12T09:15:15.605Z,8.37
2023-04-12T09:17:45.760Z,8.45
2023-04-12T09:20:27.866Z,8.42
2023-04-12T09:22:57.845Z,8.47
2023-04-12T09:25:41.751Z,8.54
2023-04-12T09:28:26.147Z,8.56
2023-04-12T09:31:00.049Z,8.58
2023-04-12T09:33:36.889Z,8.66
2023-04-12T09:36:09.497Z,8.75
2023-04-12T09:38:39.658Z,8.82
2023-04-12T09:41:22.501Z,8.96
2023-04-12T09:43:54.638Z,9.02
2023-04-12T09:46:26.776Z,8.86
2023-04-12T09:48:59.031Z,8.90
2023-04-12T09:51:29.916Z,8.95
2023-04-12T09:54:02.392Z,8.99
2023-04-12T09:56:33.408Z,8.94
2023-04-12T09:59:05.403Z,9.14
2023-04-12T10:01:40.331Z,9.17
2023-04-12T10:04:11.028Z,9.27
2023-04-12T10:06:41.634Z,9.32
2023-04-12T10:09:12.037Z,9.48
2023-04-12T10:11:43.299Z,9.40
2023-04-12T10:14:14.385Z,9.34
2023-04-12T10:16:48.074Z,9.32
2023-04-12T10:19:18.155Z,9.34
2023-04-12T10:21:47.662Z,9.34
2023-04-12T10:24:17.532Z,9.49
2023-04-12T10:26:47.051Z,9.40
2023-04-12T10:29:27.572Z,9.36
2023-04-12T10:32:00.600Z,9.40
2023-04-12T10:34:30.881Z,9.30
2023-04-12T10:37:01.781Z,9.23
2023-04-12T10:39:39.831Z,9.21
2023-04-12T10:42:27.305Z,9.12
2023-04-12T10:45:00.371Z,9.12
2023-04-12T10:48:04.825Z,9.30
2023-04-12T10:50:35.589Z,9.40
2023-04-12T10:53:29.220Z,9.31
2023-04-12T10:55:58.742Z,9.26
2023-04-12T10:58:58.982Z,9.20
2023-04-12T11:01:29.547Z,9.20
2023-04-12T11:04:27.144Z,8.97
2023-04-12T11:07:03.000Z,8.72
2023-04-12T11:09:41.719Z,8.54
2023-04-12T11:12:16.337Z,8.45
2023-04-12T11:14:50.118Z,8.48
2023-04-12T11:17:29.060Z,8.41
2023-04-12T11:20:05.073Z,8.07
2023-04-12T11:22:35.410Z,8.03
2023-04-12T11:25:05.903Z,7.89
2023-04-12T11:27:38.081Z,7.86
2023-04-12T11:30:09.109Z,7.77
2023-04-12T11:32:41.618Z,7.71
2023-04-12T11:35:13.961Z,7.62
2023-04-12T11:37:43.588Z,7.47
2023-04-12T11:40:14.022Z,7.36
2023-04-12T11:42:43.672Z,7.30
2023-04-12T11:45:18.116Z,7.23
2023-04-12T11:47:49.027Z,7.49
2023-04-12T11:50:33.676Z,7.48
2023-04-12T11:53:14.098Z,7.61
2023-04-12T11:55:44.110Z,7.39
2023-04-12T11:58:13.717Z,7.38
2023-04-12T12:00:44.377Z,7.49
2023-04-12T12:03:14.157Z,7.48
2023-04-12T12:05:46.856Z,7.32
2023-04-12T12:08:16.682Z,7.33
2023-04-12T12:11:04.036Z,7.43
2023-04-12T12:13:47.153Z,7.45
2023-04-12T12:16:17.531Z,7.45
2023-04-12T12:18:49.139Z,7.24
2023-04-12T12:21:23.842Z,7.23
2023-04-12T12:23:53.430Z,7.25
2023-04-12T12:26:23.819Z,7.35
2023-04-12T12:28:54.489Z,7.39
2023-04-12T12:31:26.545Z,7.68
2023-04-12T12:33:57.557Z,7.68
2023-04-12T12:36:36.043Z,7.81
2023-04-12T12:39:11.234Z,7.67
2023-04-12T12:41:41.833Z,7.56
2023-04-12T12:44:12.331Z,7.54
2023-04-12T12:49:14.310Z,7.52
2023-04-12T12:51:47.153Z,7.49
2023-04-12T12:54:28.321Z,7.52
2023-04-12T12:57:06.258Z,7.29
2023-04-12T12:59:35.797Z,7.38
2023-04-12T13:02:05.676Z,7.39
2023-04-12T13:04:35.964Z,7.36
2023-04-12T13:07:08.121Z,7.35
2023-04-12T13:09:37.734Z,7.23
2023-04-12T13:12:07.436Z,7.23
2023-04-12T13:14:37.184Z,7.38
2023-04-12T13:17:06.696Z,7.43
2023-04-12T13:19:36.461Z,7.40
2023-04-12T13:22:08.504Z,7.44
2023-04-12T13:24:38.205Z,7.54
2023-04-12T13:27:08.455Z,7.71
2023-04-12T13:29:38.183Z,7.89
2023-04-12T13:32:08.124Z,8.38
2023-04-12T13:34:38.368Z,8.02
2023-04-12T13:37:10.520Z,8.28
2023-04-12T13:39:40.339Z,8.20
2023-04-12T13:42:09.993Z,8.14
2023-04-12T13:44:39.574Z,8.20
2023-04-12T13:47:09.049Z,7.87
2023-04-12T13:49:38.664Z,7.90
2023-04-12T13:52:10.762Z,7.74
2023-04-12T13:54:40.929Z,7.61
2023-04-12T13:57:10.591Z,7.51
2023-04-12T13:59:40.134Z,7.41
2023-04-12T14:02:10.151Z,7.24
2023-04-12T14:04:40.125Z,7.18
2023-04-12T14:07:12.266Z,7.12
2023-04-12T14:09:42.029Z,7.12
2023-04-12T14:12:11.552Z,7.19
2023-04-12T14:14:41.251Z,7.21
2023-04-12T14:17:11.591Z,7.23
2023-04-12T14:19:41.250Z,7.18
2023-04-12T14:22:13.542Z,7.10
2023-04-12T14:24:43.378Z,7.13
2023-04-12T14:27:12.916Z,7.21
2023-04-12T14:29:43.321Z,7.19
2023-04-12T14:32:12.823Z,7.22
2023-04-12T14:34:43.466Z,7.27
2023-04-12T14:37:16.388Z,7.27
2023-04-12T14:39:45.856Z,7.33
2023-04-12T14:42:15.863Z,7.37
2023-04-12T14:44:45.503Z,7.41
2023-04-12T14:47:15.044Z,7.47
2023-04-12T14:49:44.596Z,7.51
2023-04-12T14:52:16.717Z,7.53
2023-04-12T14:54:46.252Z,7.49
2023-04-12T14:57:15.771Z,7.50
2023-04-12T14:59:45.820Z,7.56
2023-04-12T15:02:15.404Z,7.57
2023-04-12T15:04:45.016Z,7.57
2023-04-12T15:07:17.148Z,7.53
2023-04-12T15:09:46.851Z,7.55
2023-04-12T15:12:17.282Z,7.63
2023-04-12T15:14:47.481Z,7.73
2023-04-12T15:17:17.239Z,7.72
2023-04-12T15:19:46.721Z,7.79
2023-04-12T15:22:18.792Z,7.71
2023-04-12T15:24:48.849Z,7.69
2023-04-12T15:27:18.370Z,7.73
2023-04-12T15:29:48.140Z,7.69
2023-04-12T15:32:18.218Z,7.64
2023-04-12T15:34:48.028Z,7.63
2023-04-12T15:37:20.114Z,7.60
2023-04-12T15:39:50.117Z,7.61
2023-04-12T15:42:20.999Z,7.54
2023-04-12T15:44:50.499Z,7.56
2023-04-12T15:47:20.049Z,7.57
2023-04-12T15:49:49.585Z,7.53
2023-04-12T15:52:21.667Z,7.44
2023-04-12T15:54:51.756Z,7.47
2023-04-12T15:57:21.245Z,7.46
2023-04-12T15:59:51.505Z,7.49
2023-04-12T16:02:21.237Z,7.49
2023-04-12T16:04:51.055Z,7.38
2023-04-12T16:07:23.275Z,7.41
2023-04-12T16:09:52.946Z,7.49
2023-04-12T16:12:22.442Z,7.52
2023-04-12T16:14:52.001Z,7.50
2023-04-12T16:17:21.815Z,7.52
2023-04-12T16:19:51.320Z,7.53
2023-04-12T16:22:23.405Z,7.49
2023-04-12T16:24:55.047Z,7.47
2023-04-12T16:27:26.313Z,7.49
2023-04-12T16:29:55.853Z,7.45
2023-04-12T16:32:25.341Z,7.49
2023-04-12T16:34:54.909Z,7.49
2023-04-12T16:37:27.027Z,7.45
2023-04-12T16:39:56.575Z,7.41
2023-04-12T16:42:28.437Z,7.53
2023-04-12T16:44:57.991Z,7.50
2023-04-12T16:47:27.608Z,7.50
2023-04-12T16:49:57.544Z,7.49
2023-04-12T16:52:29.710Z,7.54
2023-04-12T16:55:00.641Z,7.42
2023-04-12T16:57:30.212Z,7.52
2023-04-12T16:59:59.869Z,7.49
2023-04-12T17:02:29.579Z,7.56
2023-04-12T17:04:59.205Z,7.52
2023-04-12T17:07:31.834Z,7.49
2023-04-12T17:10:01.565Z,7.47
2023-04-12T17:12:31.231Z,7.43
2023-04-12T17:15:01.359Z,7.48
2023-04-12T17:17:30.871Z,7.62
2023-04-12T17:20:00.664Z,7.52
2023-04-12T17:22:32.728Z,7.49
2023-04-12T17:25:02.285Z,7.53
2023-04-12T17:27:34.642Z,7.53
2023-04-12T17:30:04.917Z,7.56
2023-04-12T17:32:35.231Z,7.55
2023-04-12T17:35:05.186Z,7.46
2023-04-12T17:37:38.322Z,7.51
2023-04-12T17:40:10.666Z,7.54
2023-04-12T17:42:41.449Z,7.57
2023-04-12T17:45:12.946Z,7.60
2023-04-12T17:47:42.637Z,7.57
2023-04-12T17:50:13.596Z,7.62
2023-04-12T17:52:45.755Z,7.56
2023-04-12T17:55:19.368Z,7.51
2023-04-12T17:57:49.085Z,7.51
2023-04-12T18:00:19.682Z,7.48
2023-04-12T18:02:50.374Z,7.50
2023-04-12T18:05:20.086Z,7.49
2023-04-12T18:07:52.228Z,7.54
2023-04-12T18:10:23.405Z,7.49
2023-04-12T18:12:52.909Z,7.50
2023-04-12T18:15:22.992Z,7.51
2023-04-12T18:17:52.515Z,7.51
2023-04-12T18:20:22.181Z,7.50
2023-04-12T18:22:54.304Z,7.61
2023-04-12T18:25:23.990Z,7.68
2023-04-12T18:27:53.595Z,7.64
2023-04-12T18:30:23.221Z,7.55
2023-04-12T18:32:53.171Z,7.59
2023-04-12T18:35:22.845Z,7.69
2023-04-12T18:37:55.568Z,7.76
2023-04-12T18:40:25.090Z,7.73
2023-04-12T18:42:54.754Z,7.80
2023-04-12T18:45:25.978Z,7.79
2023-04-12T18:47:57.058Z,7.86
2023-04-12T18:50:26.544Z,7.61
2023-04-12T18:52:58.666Z,7.56
2023-04-12T18:55:28.432Z,7.50
2023-04-12T18:57:57.886Z,7.29
2023-04-12T19:00:27.611Z,7.30
2023-04-12T19:02:57.399Z,7.23
2023-04-12T19:05:27.859Z,7.36
2023-04-12T19:07:59.978Z,7.12
2023-04-12T19:10:30.970Z,7.00
2023-04-12T19:13:00.633Z,7.05
2023-04-12T19:15:30.344Z,7.07
2023-04-12T19:18:01.215Z,7.15
2023-04-12T19:20:30.981Z,7.06
2023-04-12T19:23:03.601Z,7.02
2023-04-12T19:25:33.532Z,7.05
2023-04-12T19:28:03.009Z,7.09
2023-04-12T19:30:32.848Z,7.06
2023-04-12T19:33:02.360Z,7.04
2023-04-12T19:35:33.663Z,7.01
2023-04-12T19:38:06.169Z,6.98
2023-04-12T19:40:35.716Z,7.00
2023-04-12T19:43:05.279Z,6.94
2023-04-12T19:45:35.649Z,6.88
2023-04-12T19:48:05.248Z,6.66
2023-04-12T19:50:35.173Z,6.42
2023-04-12T19:53:08.001Z,6.02
2023-04-12T19:55:37.717Z,5.87
2023-04-12T19:58:08.190Z,5.76
2023-04-12T20:00:39.402Z,5.68
2023-04-12T20:03:09.316Z,5.70
2023-04-12T20:05:40.166Z,5.67
2023-04-12T20:08:13.366Z,5.63
2023-04-12T20:10:42.991Z,5.58
2023-04-12T20:13:15.423Z,5.58
2023-04-12T20:15:45.125Z,5.56
2023-04-12T20:18:14.634Z,5.58
2023-04-12T20:20:45.116Z,5.65
2023-04-12T20:23:17.771Z,5.63
2023-04-12T20:25:49.057Z,5.64
2023-04-12T20:28:19.742Z,5.53
2023-04-12T20:30:49.986Z,5.61
2023-04-12T20:33:20.068Z,5.64
2023-04-12T20:35:49.570Z,5.69
2023-04-12T20:38:21.696Z,5.57
2023-04-12T20:40:51.481Z,5.61
2023-04-12T20:43:23.753Z,5.68
2023-04-12T20:45:53.964Z,5.52
2023-04-12T20:48:23.521Z,5.52
2023-04-12T20:50:53.240Z,5.55
2023-04-12T20:53:25.664Z,5.51
2023-04-12T20:55:55.709Z,5.21
2023-04-12T20:58:25.176Z,5.19
2023-04-12T21:00:54.946Z,5.21
2023-04-12T21:03:24.534Z,5.33
2023-04-12T21:05:54.598Z,5.56
2023-04-12T21:08:26.689Z,5.36
2023-04-12T21:10:56.194Z,5.35
2023-04-12T21:13:26.649Z,5.25
2023-04-12T21:15:57.247Z,5.19
2023-04-12T21:18:28.362Z,5.44
2023-04-12T21:21:01.383Z,5.35
2023-04-12T21:23:33.481Z,5.05
2023-04-12T21:26:04.131Z,4.89
2023-04-12T21:28:33.786Z,4.86
2023-04-12T21:31:04.138Z,4.81
2023-04-12T21:33:33.859Z,4.72
2023-04-12T21:36:03.693Z,4.72
2023-04-12T21:38:36.357Z,4.72
2023-04-12T21:41:11.237Z,4.76
2023-04-12T21:43:41.183Z,4.69
2023-04-12T21:46:12.503Z,4.67
2023-04-12T21:48:42.010Z,4.64
2023-04-12T21:51:11.568Z,4.58
2023-04-12T21:53:43.678Z,4.58
2023-04-12T21:56:13.172Z,4.57
2023-04-12T21:58:42.685Z,4.49
2023-04-12T22:01:12.309Z,4.52
2023-04-12T22:03:42.057Z,4.48
2023-04-12T22:06:11.854Z,4.50
2023-04-12T22:08:44.317Z,4.46
2023-04-12T22:11:14.004Z,4.49
2023-04-12T22:13:46.837Z,4.46
2023-04-12T22:16:17.139Z,4.46
2023-04-12T22:18:47.195Z,4.51
2023-04-12T22:21:16.729Z,4.49
2023-04-12T22:23:48.772Z,4.48
2023-04-12T22:26:18.312Z,4.43
2023-04-12T22:28:48.543Z,4.33
2023-04-12T22:31:22.425Z,4.39
2023-04-12T22:33:55.062Z,4.33
2023-04-12T22:36:28.589Z,4.31
2023-04-12T22:39:01.605Z,4.36
2023-04-12T22:41:33.227Z,4.39
2023-04-12T22:44:03.398Z,4.39
2023-04-12T22:46:33.911Z,4.41
2023-04-12T22:49:03.702Z,4.57
2023-04-12T22:51:33.397Z,4.68
2023-04-12T22:54:08.714Z,4.82
2023-04-12T22:56:41.880Z,4.31
2023-04-12T22:59:12.298Z,4.30
2023-04-12T23:01:41.995Z,4.38
2023-04-12T23:04:12.315Z,4.44
2023-04-12T23:06:43.565Z,4.45
2023-04-12T23:09:15.897Z,4.44
2023-04-12T23:11:45.408Z,4.46
2023-04-12T23:14:17.782Z,4.46
2023-04-12T23:16:47.576Z,4.51
2023-04-12T23:19:17.226Z,4.57
2023-04-12T23:21:46.893Z,4.40
2023-04-12T23:24:19.331Z,4.46
2023-04-12T23:26:49.130Z,4.45
2023-04-12T23:29:18.657Z,4.48
2023-04-12T23:31:48.191Z,4.61
2023-04-12T23:34:19.034Z,4.62
2023-04-12T23:36:50.962Z,4.55
2023-04-12T23:39:23.066Z,4.54
2023-04-12T23:41:52.558Z,4.59
2023-04-12T23:44:22.063Z,4.58
2023-04-12T23:46:51.673Z,4.49
2023-04-12T23:49:21.356Z,4.58
2023-04-12T23:51:50.837Z,4.68
2023-04-12T23:54:23.140Z,4.63
2023-04-12T23:56:52.598Z,4.46
2023-04-12T23:59:22.494Z,4.57
